createdAt,value
2022-08-20T00:01:07.052Z,26.77
2022-08-20T00:03:39.163Z,24.00
2022-08-20T00:06:12.808Z,21.47
2022-08-20T00:08:40.185Z,24.60
2022-08-20T00:11:08.877Z,23.70
2022-08-20T00:13:43.027Z,25.93
2022-08-20T00:16:10.524Z,21.23
2022-08-20T00:18:37.454Z,25.57
2022-08-20T00:21:07.993Z,24.83
2022-08-20T00:23:46.456Z,26.87
2022-08-20T00:26:13.599Z,25.43
2022-08-20T00:28:40.496Z,23.47
2022-08-20T00:31:12.350Z,24.77
2022-08-20T00:33:39.404Z,26.10
2022-08-20T00:36:09.297Z,22.10
2022-08-20T00:38:40.517Z,25.97
2022-08-20T00:41:09.257Z,21.83
2022-08-20T00:43:43.061Z,24.73
2022-08-20T00:46:31.644Z,22.53
2022-08-20T00:49:00.121Z,23.37
2022-08-20T00:51:43.199Z,23.70
2022-08-20T00:54:41.410Z,22.60
2022-08-20T00:57:11.916Z,21.93
2022-08-20T00:59:40.256Z,23.60
2022-08-20T01:02:10.434Z,25.57
2022-08-20T01:04:40.749Z,24.23
2022-08-20T01:07:07.820Z,25.53
2022-08-20T01:09:58.527Z,26.97
2022-08-20T01:12:24.018Z,25.73
2022-08-20T01:14:51.176Z,23.90
2022-08-20T01:17:22.123Z,25.87
2022-08-20T01:19:53.400Z,24.50
2022-08-20T01:23:06.233Z,26.10
2022-08-20T01:25:53.501Z,23.30
2022-08-20T01:28:24.188Z,28.83
2022-08-20T01:30:51.350Z,27.33
2022-08-20T01:33:22.792Z,29.00
2022-08-20T01:35:50.682Z,28.03
2022-08-20T01:38:17.567Z,29.10
2022-08-20T01:40:53.534Z,29.70
2022-08-20T01:43:21.395Z,25.13
2022-08-20T01:45:49.900Z,22.70
2022-08-20T01:48:26.569Z,26.97
2022-08-20T01:51:17.566Z,25.23
2022-08-20T01:53:56.645Z,23.43
2022-08-20T01:56:26.203Z,26.70
2022-08-20T01:58:57.260Z,25.07
2022-08-20T02:01:45.835Z,25.23
2022-08-20T02:04:15.344Z,28.13
2022-08-20T02:06:56.692Z,29.37
2022-08-20T02:09:25.950Z,22.03
2022-08-20T02:11:53.561Z,29.27
2022-08-20T02:14:26.857Z,27.20
2022-08-20T02:16:59.638Z,28.00
2022-08-20T02:19:41.930Z,29.83
2022-08-20T02:22:40.786Z,28.77
2022-08-20T02:25:17.128Z,31.93
2022-08-20T02:27:46.073Z,29.07
2022-08-20T02:30:21.239Z,29.63
2022-08-20T02:32:56.239Z,30.90
2022-08-20T02:35:24.233Z,24.93
2022-08-20T02:37:51.650Z,31.63
2022-08-20T02:40:27.282Z,27.47
2022-08-20T02:43:01.606Z,27.67
2022-08-20T02:45:29.906Z,28.90
2022-08-20T02:47:56.909Z,29.80
2022-08-20T02:50:24.970Z,28.37
2022-08-20T02:52:52.379Z,29.20
2022-08-20T02:55:27.630Z,30.80
2022-08-20T02:58:09.983Z,28.57
2022-08-20T03:00:37.968Z,26.70
2022-08-20T03:03:09.346Z,30.87
2022-08-20T03:05:39.403Z,35.50
2022-08-20T03:08:08.319Z,31.00
2022-08-20T03:10:36.716Z,32.83
2022-08-20T03:13:11.234Z,30.73
2022-08-20T03:15:40.096Z,30.70
2022-08-20T03:18:07.313Z,26.63
2022-08-20T03:20:36.281Z,28.87
2022-08-20T03:23:03.779Z,31.33
2022-08-20T03:25:30.801Z,31.07
2022-08-20T03:27:57.888Z,35.27
2022-08-20T03:30:26.717Z,37.53
2022-08-20T03:32:56.235Z,31.70
2022-08-20T03:35:25.020Z,29.03
2022-08-20T03:37:52.016Z,30.20
2022-08-20T03:40:22.557Z,33.07
2022-08-20T03:42:49.541Z,30.37
2022-08-20T03:45:20.310Z,32.20
2022-08-20T03:47:48.391Z,35.63
2022-08-20T03:50:23.197Z,30.80
2022-08-20T03:52:52.095Z,29.60
2022-08-20T03:55:19.637Z,31.80
2022-08-20T03:57:49.704Z,30.57
2022-08-20T04:00:27.006Z,35.53
2022-08-20T04:02:53.990Z,38.80
2022-08-20T04:05:21.086Z,33.63
2022-08-20T04:07:48.008Z,37.33
2022-08-20T04:10:14.769Z,36.73
2022-08-20T04:12:52.921Z,39.23
2022-08-20T04:15:21.205Z,37.70
2022-08-20T04:17:50.190Z,38.73
2022-08-20T04:20:22.747Z,39.47
2022-08-20T04:22:59.090Z,38.53
2022-08-20T04:25:36.191Z,35.00
2022-08-20T04:28:06.716Z,36.27
2022-08-20T04:30:33.551Z,36.83
2022-08-20T04:33:04.034Z,35.37
2022-08-20T04:35:31.295Z,36.37
2022-08-20T04:38:00.856Z,32.67
2022-08-20T04:40:45.993Z,38.47
2022-08-20T04:43:14.662Z,36.93
2022-08-20T04:45:43.919Z,33.40
2022-08-20T04:48:14.966Z,34.90
2022-08-20T04:50:51.845Z,37.83
2022-08-20T04:53:25.287Z,34.97
2022-08-20T04:55:54.416Z,33.10
2022-08-20T04:58:33.833Z,39.27
2022-08-20T05:01:06.308Z,37.43
2022-08-20T05:03:35.526Z,36.43
2022-08-20T05:06:02.228Z,42.43
2022-08-20T05:08:29.710Z,39.80
2022-08-20T05:11:34.023Z,42.60
2022-08-20T05:13:52.853Z,45.20
2022-08-20T05:16:20.580Z,38.57
2022-08-20T05:18:52.133Z,37.20
2022-08-20T05:21:20.868Z,40.90
2022-08-20T05:23:49.032Z,39.40
2022-08-20T05:26:16.796Z,43.00
2022-08-20T05:28:58.125Z,39.60
2022-08-20T05:31:32.000Z,41.63
2022-08-20T05:34:10.378Z,43.73
2022-08-20T05:36:52.564Z,41.50
2022-08-20T05:39:22.971Z,42.60
2022-08-20T05:41:52.121Z,40.27
2022-08-20T05:44:20.645Z,42.57
2022-08-20T05:46:48.041Z,40.13
2022-08-20T05:49:20.085Z,42.13
2022-08-20T05:51:47.422Z,44.57
2022-08-20T05:54:15.512Z,45.27
2022-08-20T05:56:42.199Z,40.40
2022-08-20T05:59:09.875Z,41.73
2022-08-20T06:01:38.528Z,40.50
2022-08-20T06:04:24.319Z,36.00
2022-08-20T06:06:53.119Z,46.00
2022-08-20T06:09:30.936Z,38.33
2022-08-20T06:11:59.621Z,39.73
2022-08-20T06:14:26.696Z,45.03
2022-08-20T06:17:00.709Z,41.00
2022-08-20T06:19:32.368Z,42.50
2022-08-20T06:21:59.774Z,45.77
2022-08-20T06:24:27.030Z,41.67
2022-08-20T06:26:58.662Z,42.23
2022-08-20T06:29:26.096Z,43.13
2022-08-20T06:31:56.059Z,41.10
2022-08-20T06:34:28.357Z,35.90
2022-08-20T06:36:58.850Z,36.77
2022-08-20T06:39:31.394Z,38.57
2022-08-20T06:41:58.746Z,34.50
2022-08-20T06:44:25.976Z,34.63
2022-08-20T06:46:59.158Z,33.33
2022-08-20T06:49:25.871Z,35.60
2022-08-20T06:51:54.385Z,28.90
2022-08-20T06:54:23.496Z,27.03
2022-08-20T06:56:56.190Z,23.33
2022-08-20T06:59:22.900Z,21.70
2022-08-20T07:02:09.305Z,21.77
2022-08-20T07:04:37.135Z,19.07
2022-08-20T07:07:04.620Z,20.97
2022-08-20T07:09:31.403Z,17.33
2022-08-20T07:11:58.092Z,19.87
2022-08-20T07:14:27.320Z,19.80
2022-08-20T07:16:56.385Z,19.83
2022-08-20T07:19:23.370Z,20.27
2022-08-20T07:21:52.570Z,17.10
2022-08-20T07:24:21.915Z,19.53
2022-08-20T07:26:58.068Z,21.90
2022-08-20T07:29:44.774Z,19.57
2022-08-20T07:32:30.073Z,20.50
2022-08-20T07:34:56.703Z,20.10
2022-08-20T07:37:23.930Z,19.23
2022-08-20T07:39:50.919Z,22.80
2022-08-20T07:42:20.002Z,21.33
2022-08-20T07:44:46.668Z,19.90
2022-08-20T07:47:13.532Z,24.47
2022-08-20T07:49:40.643Z,24.23
2022-08-20T07:52:07.361Z,19.93
2022-08-20T07:54:40.048Z,22.27
2022-08-20T07:57:06.772Z,24.37
2022-08-20T07:59:33.448Z,22.53
2022-08-20T08:02:00.119Z,18.77
2022-08-20T08:04:26.784Z,18.57
2022-08-20T08:07:00.889Z,20.83
2022-08-20T08:09:27.720Z,17.97
2022-08-20T08:11:57.533Z,17.80
2022-08-20T08:14:33.488Z,18.43
2022-08-20T08:17:04.421Z,16.33
2022-08-20T08:19:38.730Z,15.63
2022-08-20T08:22:08.023Z,19.40
2022-08-20T08:24:34.652Z,16.40
2022-08-20T08:27:08.582Z,14.07
2022-08-20T08:29:36.157Z,15.37
2022-08-20T08:32:07.034Z,17.40
2022-08-20T08:34:35.404Z,12.70
2022-08-20T08:37:03.405Z,12.23
2022-08-20T08:39:34.628Z,11.73
2022-08-20T08:42:05.082Z,11.50
2022-08-20T08:44:38.562Z,11.80
2022-08-20T08:47:18.431Z,12.60
2022-08-20T08:49:46.948Z,12.03
2022-08-20T08:52:22.995Z,14.43
2022-08-20T08:54:54.187Z,12.07
2022-08-20T08:57:20.962Z,10.37
2022-08-20T09:00:04.984Z,7.67
2022-08-20T09:02:34.018Z,6.93
2022-08-20T09:05:02.401Z,6.80
2022-08-20T09:07:32.474Z,8.80
2022-08-20T09:10:00.203Z,6.50
2022-08-20T09:12:37.359Z,7.97
2022-08-20T09:15:04.394Z,7.50
2022-08-20T09:17:31.093Z,8.37
2022-08-20T09:19:59.174Z,6.50
2022-08-20T09:22:28.350Z,8.10
2022-08-20T09:24:56.242Z,6.40
2022-08-20T09:27:22.934Z,5.70
2022-08-20T09:29:50.681Z,5.10
2022-08-20T09:32:23.229Z,5.83
2022-08-20T09:37:56.089Z,5.97
2022-08-20T09:40:22.947Z,4.17
2022-08-20T09:42:50.848Z,4.90
2022-08-20T09:45:21.108Z,6.03
2022-08-20T09:47:56.510Z,4.83
2022-08-20T09:50:28.615Z,5.43
2022-08-20T09:52:57.014Z,5.73
2022-08-20T09:55:32.043Z,5.00
2022-08-20T09:58:03.354Z,5.63
2022-08-20T10:00:29.988Z,4.57
2022-08-20T10:02:56.746Z,4.53
2022-08-20T10:05:23.431Z,4.53
2022-08-20T10:07:51.149Z,5.17
2022-08-20T10:10:17.801Z,5.77
2022-08-20T10:12:54.921Z,6.00
2022-08-20T10:15:25.252Z,8.43
2022-08-20T10:17:51.931Z,8.93
2022-08-20T10:20:19.128Z,12.30
2022-08-20T10:22:45.929Z,12.20
2022-08-20T10:25:16.772Z,15.90
2022-08-20T10:27:44.261Z,14.63
2022-08-20T10:30:14.609Z,15.30
2022-08-20T10:32:48.586Z,16.90
2022-08-20T10:35:15.630Z,13.60
2022-08-20T10:37:45.612Z,15.87
2022-08-20T10:40:15.987Z,16.03
2022-08-20T10:42:45.941Z,17.70
2022-08-20T10:45:17.363Z,18.63
2022-08-20T10:47:47.029Z,21.10
2022-08-20T10:50:19.927Z,15.30
2022-08-20T10:52:47.361Z,16.10
2022-08-20T10:55:14.246Z,18.30
2022-08-20T10:57:44.828Z,16.40
2022-08-20T11:00:17.591Z,17.43
2022-08-20T11:02:44.321Z,13.30
2022-08-20T11:05:11.013Z,16.67
2022-08-20T11:07:50.635Z,13.00
2022-08-20T11:10:27.196Z,11.20
2022-08-20T11:12:53.880Z,12.40
2022-08-20T11:15:20.578Z,9.70
2022-08-20T11:17:47.336Z,10.97
2022-08-20T11:20:24.162Z,8.50
2022-08-20T11:22:50.988Z,8.63
2022-08-20T11:25:17.741Z,10.87
2022-08-20T11:27:53.578Z,10.80
2022-08-20T11:30:32.508Z,10.77
2022-08-20T11:33:00.521Z,8.30
2022-08-20T11:35:49.473Z,8.70
2022-08-20T11:38:16.220Z,8.10
2022-08-20T11:40:43.887Z,6.60
2022-08-20T11:43:15.606Z,7.13
2022-08-20T11:45:45.195Z,7.40
2022-08-20T11:48:11.960Z,7.70
2022-08-20T11:50:38.861Z,9.30
2022-08-20T11:53:08.232Z,6.33
2022-08-20T11:55:35.238Z,7.13
2022-08-20T11:58:04.686Z,7.50
2022-08-20T12:00:39.002Z,9.63
2022-08-20T12:03:10.257Z,10.37
2022-08-20T12:05:40.200Z,8.10
2022-08-20T12:08:26.903Z,6.80
2022-08-20T12:11:06.758Z,7.70
2022-08-20T12:13:48.157Z,6.37
2022-08-20T12:16:19.562Z,5.50
2022-08-20T12:18:47.422Z,6.37
2022-08-20T12:21:14.547Z,6.20
2022-08-20T12:23:41.314Z,4.60
2022-08-20T12:26:08.058Z,3.10
2022-08-20T12:28:38.779Z,4.10
2022-08-20T12:31:11.608Z,3.50
2022-08-20T12:33:38.735Z,3.60
2022-08-20T12:36:14.302Z,4.53
2022-08-20T12:38:41.202Z,4.60
2022-08-20T12:41:07.923Z,3.93
2022-08-20T12:43:54.261Z,5.20
2022-08-20T12:46:29.938Z,5.60
2022-08-20T12:48:56.823Z,4.83
2022-08-20T12:51:26.713Z,6.53
2022-08-20T12:54:02.093Z,3.50
2022-08-20T12:56:31.227Z,5.27
2022-08-20T12:58:58.371Z,5.03
2022-08-20T13:01:35.968Z,6.47
2022-08-20T13:04:14.683Z,5.17
2022-08-20T13:06:47.185Z,4.67
2022-08-20T13:09:17.127Z,6.60
2022-08-20T13:11:46.972Z,9.20
2022-08-20T13:14:13.999Z,4.30
2022-08-20T13:16:42.369Z,4.80
2022-08-20T13:19:18.386Z,4.93
2022-08-20T13:25:46.501Z,6.03
2022-08-20T13:28:13.489Z,5.73
2022-08-20T13:30:41.669Z,7.03
2022-08-20T13:33:11.991Z,5.60
2022-08-20T13:35:41.992Z,2.93
2022-08-20T13:38:08.957Z,5.10
2022-08-20T13:40:35.776Z,4.67
2022-08-20T13:43:06.845Z,3.90
2022-08-20T13:45:37.893Z,5.50
2022-08-20T13:48:06.942Z,5.53
2022-08-20T13:50:40.270Z,5.00
2022-08-20T13:53:07.911Z,7.13
2022-08-20T13:55:34.747Z,6.67
2022-08-20T13:58:07.574Z,3.00
2022-08-20T14:00:34.955Z,4.63
2022-08-20T14:03:03.735Z,5.50
2022-08-20T14:05:30.941Z,4.77
2022-08-20T14:08:06.252Z,5.77
2022-08-20T14:10:33.230Z,6.47
2022-08-20T14:13:00.251Z,5.73
2022-08-20T14:15:26.978Z,4.33
2022-08-20T14:17:59.242Z,3.43
2022-08-20T14:20:32.161Z,4.40
2022-08-20T14:22:59.715Z,4.67
2022-08-20T14:25:31.566Z,5.40
2022-08-20T14:27:58.944Z,4.97
2022-08-20T14:30:29.822Z,5.23
2022-08-20T14:33:03.607Z,6.73
2022-08-20T14:35:37.411Z,8.47
2022-08-20T14:38:06.702Z,3.83
2022-08-20T14:40:34.213Z,4.33
2022-08-20T14:43:01.236Z,7.37
2022-08-20T14:45:28.163Z,5.03
2022-08-20T14:47:57.421Z,4.60
2022-08-20T14:50:27.278Z,2.80
2022-08-20T14:52:54.902Z,5.83
2022-08-20T14:55:23.512Z,4.50
2022-08-20T14:57:50.820Z,7.87
2022-08-20T15:00:29.397Z,6.07
2022-08-20T15:02:57.021Z,7.73
2022-08-20T15:05:24.039Z,8.70
2022-08-20T15:08:00.673Z,5.90
2022-08-20T15:10:40.309Z,5.60
2022-08-20T15:13:08.125Z,5.47
2022-08-20T15:15:35.654Z,6.30
2022-08-20T15:18:12.309Z,5.67
2022-08-20T15:20:38.990Z,4.37
2022-08-20T15:23:06.418Z,4.63
2022-08-20T15:25:42.028Z,6.00
2022-08-20T15:28:10.065Z,10.50
2022-08-20T15:30:38.549Z,5.60
2022-08-20T15:33:11.246Z,7.00
2022-08-20T15:35:38.198Z,8.30
2022-08-20T15:38:05.035Z,5.13
2022-08-20T15:40:32.922Z,5.57
2022-08-20T15:43:01.323Z,6.33
2022-08-20T15:45:28.489Z,5.10
2022-08-20T15:48:17.446Z,8.20
2022-08-20T15:51:05.462Z,8.17
2022-08-20T15:53:40.396Z,9.80
2022-08-20T15:56:29.253Z,6.67
2022-08-20T15:59:26.201Z,4.57
2022-08-20T16:02:38.395Z,7.37
2022-08-20T16:05:28.151Z,7.80
2022-08-20T16:08:08.798Z,7.80
2022-08-20T16:11:17.216Z,4.63
2022-08-20T16:13:44.074Z,11.63
2022-08-20T16:16:31.460Z,5.93
2022-08-20T16:19:02.400Z,5.97
2022-08-20T16:24:30.990Z,5.57
2022-08-20T16:27:13.308Z,5.23
2022-08-20T16:30:01.958Z,6.20
2022-08-20T16:32:47.545Z,9.20
2022-08-20T16:35:53.741Z,9.77
2022-08-20T16:38:33.600Z,6.33
2022-08-20T16:41:18.076Z,9.30
2022-08-20T16:44:22.109Z,4.23
2022-08-20T16:47:14.399Z,4.50
2022-08-20T16:49:57.419Z,10.60
2022-08-20T16:52:30.809Z,5.93
2022-08-20T16:54:57.921Z,5.27
2022-08-20T16:57:30.654Z,6.87
2022-08-20T17:00:16.900Z,8.40
2022-08-20T17:03:33.562Z,5.30
2022-08-20T17:06:31.804Z,6.17
2022-08-20T17:08:58.926Z,8.03
2022-08-20T17:11:39.347Z,5.63
2022-08-20T17:14:10.900Z,5.60
2022-08-20T17:17:07.291Z,4.23
2022-08-20T17:19:34.381Z,5.43
2022-08-20T17:22:12.780Z,12.27
2022-08-20T17:24:40.365Z,4.97
2022-08-20T17:30:34.876Z,6.33
2022-08-20T17:33:07.439Z,7.80
2022-08-20T17:35:43.522Z,5.83
2022-08-20T17:39:00.474Z,6.70
2022-08-20T17:41:43.119Z,4.70
2022-08-20T17:44:48.888Z,6.90
2022-08-20T17:47:25.348Z,7.43
2022-08-20T17:50:03.005Z,9.77
2022-08-20T17:52:53.919Z,5.93
2022-08-20T17:55:21.357Z,5.90
2022-08-20T17:58:04.278Z,10.37
2022-08-20T18:00:31.249Z,6.70
2022-08-20T18:03:23.294Z,6.03
2022-08-20T18:06:22.075Z,9.27
2022-08-20T18:09:17.958Z,7.23
2022-08-20T18:11:49.762Z,6.93
2022-08-20T18:14:46.266Z,6.77
2022-08-20T18:17:37.914Z,4.97
2022-08-20T18:20:44.102Z,5.40
2022-08-20T18:23:23.680Z,6.50
2022-08-20T18:26:14.226Z,5.03
2022-08-20T18:28:49.178Z,8.90
2022-08-20T18:31:40.396Z,9.80
2022-08-20T18:34:31.228Z,3.90
2022-08-20T18:37:04.477Z,7.30
2022-08-20T18:39:34.194Z,4.03
2022-08-20T18:42:10.817Z,4.30
2022-08-20T18:44:44.112Z,4.57
2022-08-20T18:47:26.993Z,9.70
2022-08-20T18:50:16.607Z,9.77
2022-08-20T18:53:09.884Z,7.70
2022-08-20T18:55:44.846Z,8.30
2022-08-20T18:58:34.067Z,6.47
2022-08-20T19:01:02.353Z,8.27
2022-08-20T19:03:40.608Z,6.70
2022-08-20T19:06:33.654Z,4.83
2022-08-20T19:09:10.324Z,6.47
2022-08-20T19:11:50.299Z,7.70
2022-08-20T19:14:57.653Z,4.07
2022-08-20T19:17:44.158Z,4.97
2022-08-20T19:20:17.241Z,9.10
2022-08-20T19:22:49.674Z,9.67
2022-08-20T19:25:35.110Z,5.93
2022-08-20T19:28:17.829Z,6.70
2022-08-20T19:30:45.138Z,5.10
2022-08-20T19:33:13.196Z,7.47
2022-08-20T19:35:45.743Z,5.67
2022-08-20T19:38:16.370Z,7.30
2022-08-20T19:40:46.262Z,6.10
2022-08-20T19:43:19.294Z,7.40
2022-08-20T19:45:48.033Z,5.87
2022-08-20T19:48:45.447Z,6.73
2022-08-20T19:51:32.652Z,6.30
2022-08-20T19:54:00.609Z,3.70
2022-08-20T19:56:28.116Z,9.23
2022-08-20T19:59:06.533Z,4.37
2022-08-20T20:01:34.303Z,7.97
2022-08-20T20:04:03.849Z,4.83
2022-08-20T20:06:33.861Z,8.03
2022-08-20T20:09:04.532Z,5.63
2022-08-20T20:11:37.987Z,5.50
2022-08-20T20:14:09.142Z,6.83
2022-08-20T20:16:38.104Z,7.40
2022-08-20T20:22:19.358Z,5.03
2022-08-20T20:24:50.850Z,6.40
2022-08-20T20:27:27.759Z,4.93
2022-08-20T20:30:28.139Z,10.67
2022-08-20T20:32:55.177Z,9.37
2022-08-20T20:35:33.386Z,6.27
2022-08-20T20:38:10.917Z,6.20
2022-08-20T20:40:50.687Z,9.50
2022-08-20T20:43:37.866Z,6.53
2022-08-20T20:46:25.239Z,6.50
2022-08-20T20:48:57.256Z,3.70
2022-08-20T20:51:35.136Z,8.27
2022-08-20T20:54:07.726Z,5.57
2022-08-20T20:56:38.727Z,5.30
2022-08-20T20:59:10.496Z,5.40
2022-08-20T21:01:50.256Z,3.60
2022-08-20T21:04:26.443Z,6.27
2022-08-20T21:07:07.343Z,8.70
2022-08-20T21:09:35.570Z,12.30
2022-08-20T21:12:08.923Z,5.63
2022-08-20T21:14:36.241Z,5.60
2022-08-20T21:17:05.366Z,5.50
2022-08-20T21:19:45.293Z,3.77
2022-08-20T21:22:12.224Z,5.73
2022-08-20T21:24:38.878Z,4.80
2022-08-20T21:27:13.195Z,8.73
2022-08-20T21:29:40.050Z,4.97
2022-08-20T21:32:07.049Z,5.73
2022-08-20T21:34:39.656Z,5.50
2022-08-20T21:37:06.439Z,6.53
2022-08-20T21:39:33.266Z,6.07
2022-08-20T21:42:02.357Z,7.10
2022-08-20T21:44:31.716Z,6.37
2022-08-20T21:46:59.669Z,9.90
2022-08-20T21:49:27.321Z,11.03
2022-08-20T21:51:59.512Z,10.27
2022-08-20T21:54:28.882Z,5.90
2022-08-20T21:57:05.551Z,6.17
2022-08-20T21:59:32.576Z,9.23
2022-08-20T22:02:01.112Z,6.13
2022-08-20T22:04:35.239Z,7.30
2022-08-20T22:07:02.701Z,9.60
2022-08-20T22:09:40.301Z,11.23
2022-08-20T22:12:22.241Z,4.90
2022-08-20T22:14:49.337Z,6.90
2022-08-20T22:17:16.295Z,7.70
2022-08-20T22:19:48.748Z,6.63
2022-08-20T22:22:15.824Z,4.90
2022-08-20T22:24:42.565Z,7.53
2022-08-20T22:27:09.330Z,10.33
2022-08-20T22:29:36.027Z,8.20
2022-08-20T22:32:03.702Z,8.20
2022-08-20T22:34:32.733Z,4.83
2022-08-20T22:37:00.600Z,11.10
2022-08-20T22:39:27.679Z,3.97
2022-08-20T22:41:54.398Z,4.43
2022-08-20T22:44:21.178Z,10.00
2022-08-20T22:46:53.917Z,5.70
2022-08-20T22:49:27.000Z,7.97
2022-08-20T22:51:53.931Z,7.50
2022-08-20T22:54:27.136Z,8.83
2022-08-20T22:56:55.042Z,4.97
2022-08-20T22:59:22.737Z,8.43
2022-08-20T23:01:49.842Z,6.17
2022-08-20T23:04:24.257Z,5.43
2022-08-20T23:06:51.445Z,5.60
2022-08-20T23:09:26.409Z,4.70
2022-08-20T23:11:53.424Z,10.23
2022-08-20T23:14:20.808Z,4.90
2022-08-20T23:16:58.834Z,9.43
2022-08-20T23:19:25.866Z,10.23
2022-08-20T23:21:53.077Z,9.00
2022-08-20T23:24:24.249Z,6.43
2022-08-20T23:26:53.350Z,14.03
2022-08-20T23:29:22.320Z,5.90
2022-08-20T23:31:53.698Z,9.83
2022-08-20T23:34:20.395Z,7.40
2022-08-20T23:36:47.797Z,6.73
2022-08-20T23:39:14.444Z,9.30
2022-08-20T23:41:47.783Z,5.83
2022-08-20T23:44:26.598Z,8.80
2022-08-20T23:46:59.066Z,5.97
2022-08-20T23:49:27.107Z,4.60
2022-08-20T23:51:55.794Z,6.77
2022-08-20T23:54:22.516Z,7.30
2022-08-20T23:56:49.527Z,5.90
2022-08-20T23:59:16.357Z,7.53
